Pineville, MO

5:26 AM CDT on September 15, 2014 (GMT -0500)
NW Arkansas Airport | Change Station
CLOSE
Current Station
Airport
Location: NW Arkansas Airport,
Elevation: 1286 ft
Nearby Weather Stations

Elev 1286 ft 36.28 °N, 94.31 °W | Updated 33 minutes ago

Overcast
Overcast
63 °F
Feels Like 63 °F
N
7
Wind Variable Wind from South

Today
High -- | Low -- °F
--% Chance of Precip.
Yesterday
High -- | Low -- °F
Precip. -- in
6:59 AM 7:24 PM
Waning Gibbous, 57% visible
Pressure 30.13 in
Visibility 10.0 miles
Clouds Few 8000 ft
Overcast 11000 ft
Dew Point 61 °F
Humidity 93%
Rainfall 0.01 in
Snow Depth Not available.
UV 0 out of 12
Pollen 7.40 out of 12
Air Quality Not available.
Flu Activity Not available.
METAR KXNA 150953Z AUTO 19006KT 10SM -RA FEW080 OVC110 17/16 A3016 RMK AO2 RAB12 SLP202 P0001 T01720161

More Conditions Fewer Conditions

Pressure 30.13 in
Visibility 10.0 miles
Clouds Few 8000 ft
Overcast 11000 ft
Dew Point 61 °F
Humidity 93%
Rainfall 0.01 in
Snow Depth Not available.
UV 0 out of 12
Pollen 7.40 out of 12
Air Quality Not available.
Flu Activity Not available.
METAR KXNA 150953Z AUTO 19006KT 10SM -RA FEW080 OVC110 17/16 A3016 RMK AO2 RAB12 SLP202 P0001 T01720161

More Conditions Fewer Conditions

10-Day Weather Forecast

Almanac

Astronomy

Sep. 15, 2014 Rise Set
Actual Time 6:59 AM CDT 7:24 PM CDT
Civil Twilight 6:33 AM CDT 7:50 PM CDT
Nautical Twilight 6:03 AM CDT 8:21 PM CDT
Astronomical Twilight 5:32 AM CDT 8:52 PM CDT
Moon No Moon Rise 1:51 PM CDT
Length of Visible Light 13h 16m
Length of Day
12h 25m
Tomorrow will be 2m 18s shorter.
Waning Gibbous, 57% of the Moon is Illuminated
Today
Waning Gibbous
Sep 15
Last Quarter
Sep 24
New
Oct 1
First Quarter
Oct 8
Full

Today's Extremes

State Highs State Lows

Community

WunderPhotos

Upload Photos

1,753,428 photos uploaded!

WunderBlogs® & News

Nearby

Snow Depth

Station Depth Elevation
No new snow has been reported.

Earthquake Activity

City Distance Mag. Time & Date
No recent earthquake activity has been reported nearby.
Minimum magnitude displayed is 2.5.

Coastal Water Temperatures

Place Temperature
No Stations Reporting

Nearby Weather Stations